sensor_id;sensor_type;location;lat;lon;timestamp;pressure;altitude;pressure_sealevel;temperature;humidity
6194;BME280;3130;41.564;23.280;2023-02-07T00:01:21;100189.22;;;-2.37;62.61
6194;BME280;3130;41.564;23.280;2023-02-07T00:03:50;100017.41;;;-3.37;62.70
6194;BME280;3130;41.564;23.280;2023-02-07T00:06:21;99827.03;;;-4.61;62.70
6194;BME280;3130;41.564;23.280;2023-02-07T00:08:49;100264.97;;;-2.04;62.52
6194;BME280;3130;41.564;23.280;2023-02-07T00:11:17;100020.56;;;-3.50;62.57
6194;BME280;3130;41.564;23.280;2023-02-07T00:13:47;99940.50;;;-4.03;62.61
6194;BME280;3130;41.564;23.280;2023-02-07T00:16:15;100102.19;;;-3.07;62.64
6194;BME280;3130;41.564;23.280;2023-02-07T00:18:43;100226.13;;;-2.31;62.80
6194;BME280;3130;41.564;23.280;2023-02-07T00:21:13;100132.28;;;-3.09;63.25
6194;BME280;3130;41.564;23.280;2023-02-07T00:23:41;100033.94;;;-3.49;63.27
6194;BME280;3130;41.564;23.280;2023-02-07T00:26:09;100117.38;;;-2.97;63.09
6194;BME280;3130;41.564;23.280;2023-02-07T00:28:36;99884.78;;;-4.48;63.16
6194;BME280;3130;41.564;23.280;2023-02-07T00:31:06;100237.66;;;-2.44;63.26
6194;BME280;3130;41.564;23.280;2023-02-07T00:33:34;100276.53;;;-2.18;63.26
6194;BME280;3130;41.564;23.280;2023-02-07T00:36:04;99896.38;;;-4.54;63.68
6194;BME280;3130;41.564;23.280;2023-02-07T00:38:33;99796.31;;;-5.10;63.89
6194;BME280;3130;41.564;23.280;2023-02-07T00:41:03;100129.44;;;-3.33;64.31
6194;BME280;3130;41.564;23.280;2023-02-07T00:43:31;100098.88;;;-3.66;64.38
6194;BME280;3130;41.564;23.280;2023-02-07T00:46:00;100247.00;;;-2.95;64.83
6194;BME280;3130;41.564;23.280;2023-02-07T00:48:29;100071.94;;;-4.29;65.15
6194;BME280;3130;41.564;23.280;2023-02-07T00:50:56;100272.69;;;-3.10;65.86
6194;BME280;3130;41.564;23.280;2023-02-07T00:53:24;100283.81;;;-2.95;65.25
6194;BME280;3130;41.564;23.280;2023-02-07T00:55:53;100283.97;;;-2.83;65.66
6194;BME280;3130;41.564;23.280;2023-02-07T00:58:21;99989.63;;;-4.61;65.44
6194;BME280;3130;41.564;23.280;2023-02-07T01:00:48;100312.56;;;-2.75;65.31
6194;BME280;3130;41.564;23.280;2023-02-07T01:03:16;100158.03;;;-3.74;65.32
6194;BME280;3130;41.564;23.280;2023-02-07T01:05:43;100288.16;;;-2.84;65.62
6194;BME280;3130;41.564;23.280;2023-02-07T01:08:10;100290.47;;;-2.96;66.13
6194;BME280;3130;41.564;23.280;2023-02-07T01:10:38;100288.91;;;-2.89;65.98
6194;BME280;3130;41.564;23.280;2023-02-07T01:13:07;99914.56;;;-5.13;65.96
6194;BME280;3130;41.564;23.280;2023-02-07T01:15:35;100070.25;;;-4.31;66.83
6194;BME280;3130;41.564;23.280;2023-02-07T01:18:03;100276.22;;;-2.99;67.03
6194;BME280;3130;41.564;23.280;2023-02-07T01:20:30;100025.72;;;-4.50;66.72
6194;BME280;3130;41.564;23.280;2023-02-07T01:22:58;100202.59;;;-3.55;66.92
6194;BME280;3130;41.564;23.280;2023-02-07T01:25:25;100250.69;;;-3.26;67.42
6194;BME280;3130;41.564;23.280;2023-02-07T01:27:52;100257.41;;;-3.24;67.22
6194;BME280;3130;41.564;23.280;2023-02-07T01:30:21;100275.25;;;-3.06;66.82
6194;BME280;3130;41.564;23.280;2023-02-07T01:32:48;100199.22;;;-3.58;67.12
6194;BME280;3130;41.564;23.280;2023-02-07T01:35:16;100161.00;;;-3.96;66.87
6194;BME280;3130;41.564;23.280;2023-02-07T01:37:43;100104.38;;;-4.35;66.65
6194;BME280;3130;41.564;23.280;2023-02-07T01:40:11;100281.28;;;-3.45;67.08
6194;BME280;3130;41.564;23.280;2023-02-07T01:42:38;100209.50;;;-3.91;67.26
6194;BME280;3130;41.564;23.280;2023-02-07T01:45:19;100282.16;;;-3.43;67.75
6194;BME280;3130;41.564;23.280;2023-02-07T01:47:50;100276.28;;;-3.47;67.67
6194;BME280;3130;41.564;23.280;2023-02-07T01:50:19;100023.31;;;-4.90;67.56
6194;BME280;3130;41.564;23.280;2023-02-07T01:52:47;100246.97;;;-3.49;67.87
6194;BME280;3130;41.564;23.280;2023-02-07T01:55:17;100252.03;;;-3.46;67.51
6194;BME280;3130;41.564;23.280;2023-02-07T01:57:46;100299.03;;;-3.33;67.17
6194;BME280;3130;41.564;23.280;2023-02-07T02:00:14;100295.69;;;-3.35;67.52
6194;BME280;3130;41.564;23.280;2023-02-07T02:02:42;100142.91;;;-4.25;67.30
6194;BME280;3130;41.564;23.280;2023-02-07T02:05:11;100223.09;;;-3.77;67.46
6194;BME280;3130;41.564;23.280;2023-02-07T02:07:39;100157.38;;;-4.11;67.50
6194;BME280;3130;41.564;23.280;2023-02-07T02:10:12;100181.94;;;-3.91;67.04
6194;BME280;3130;41.564;23.280;2023-02-07T02:13:05;100079.25;;;-4.41;67.03
6194;BME280;3130;41.564;23.280;2023-02-07T02:15:41;100219.88;;;-3.70;66.99
6194;BME280;3130;41.564;23.280;2023-02-07T02:18:34;100286.03;;;-3.13;67.50
6194;BME280;3130;41.564;23.280;2023-02-07T02:21:42;100293.50;;;-3.14;67.27
6194;BME280;3130;41.564;23.280;2023-02-07T02:24:55;100279.97;;;-3.25;66.88
6194;BME280;3130;41.564;23.280;2023-02-07T02:27:39;100293.25;;;-3.29;67.03
6194;BME280;3130;41.564;23.280;2023-02-07T02:30:38;100289.19;;;-3.23;67.34
6194;BME280;3130;41.564;23.280;2023-02-07T02:33:26;100300.25;;;-3.12;67.10
6194;BME280;3130;41.564;23.280;2023-02-07T02:35:58;100238.50;;;-3.57;66.33
6194;BME280;3130;41.564;23.280;2023-02-07T02:38:33;100054.59;;;-4.66;66.30
6194;BME280;3130;41.564;23.280;2023-02-07T02:41:05;100285.41;;;-2.99;66.57
6194;BME280;3130;41.564;23.280;2023-02-07T02:43:40;100284.84;;;-2.81;66.60
6194;BME280;3130;41.564;23.280;2023-02-07T02:46:14;100282.66;;;-2.59;66.01
6194;BME280;3130;41.564;23.280;2023-02-07T02:48:44;99972.66;;;-4.28;65.83
6194;BME280;3130;41.564;23.280;2023-02-07T02:51:11;100282.28;;;-2.26;64.59
6194;BME280;3130;41.564;23.280;2023-02-07T02:53:39;100280.72;;;-2.17;64.69
6194;BME280;3130;41.564;23.280;2023-02-07T02:56:39;100284.28;;;-2.00;63.69
6194;BME280;3130;41.564;23.280;2023-02-07T02:59:24;100273.38;;;-2.01;63.39
6194;BME280;3130;41.564;23.280;2023-02-07T03:02:00;100148.59;;;-2.76;63.22
6194;BME280;3130;41.564;23.280;2023-02-07T03:04:49;100272.44;;;-2.08;63.43
6194;BME280;3130;41.564;23.280;2023-02-07T03:07:30;100244.56;;;-2.31;63.20
6194;BME280;3130;41.564;23.280;2023-02-07T03:10:08;100226.06;;;-2.37;63.17
6194;BME280;3130;41.564;23.280;2023-02-07T03:12:43;100287.78;;;-1.88;62.98
6194;BME280;3130;41.564;23.280;2023-02-07T03:15:22;100131.78;;;-2.83;62.56
6194;BME280;3130;41.564;23.280;2023-02-07T03:17:55;100109.13;;;-2.87;62.51
6194;BME280;3130;41.564;23.280;2023-02-07T03:20:30;100236.50;;;-2.04;61.89
6194;BME280;3130;41.564;23.280;2023-02-07T03:23:01;100276.97;;;-1.79;62.12
6194;BME280;3130;41.564;23.280;2023-02-07T03:25:30;100138.59;;;-2.71;61.58
6194;BME280;3130;41.564;23.280;2023-02-07T03:27:58;100107.63;;;-3.38;60.53
6194;BME280;3130;41.564;23.280;2023-02-07T03:30:29;100311.44;;;-2.37;61.32
6194;BME280;3130;41.564;23.280;2023-02-07T03:32:59;100262.38;;;-2.75;62.37
6194;BME280;3130;41.564;23.280;2023-02-07T03:35:39;100214.06;;;-3.17;63.43
6194;BME280;3130;41.564;23.280;2023-02-07T03:38:09;100291.88;;;-2.59;63.59
6194;BME280;3130;41.564;23.280;2023-02-07T03:40:39;100042.16;;;-4.15;63.82
6194;BME280;3130;41.564;23.280;2023-02-07T03:43:14;100035.00;;;-3.93;64.24
6194;BME280;3130;41.564;23.280;2023-02-07T03:45:42;100154.00;;;-3.11;64.12
6194;BME280;3130;41.564;23.280;2023-02-07T03:48:17;100299.91;;;-2.23;64.80
6194;BME280;3130;41.564;23.280;2023-02-07T03:50:51;99904.53;;;-4.64;63.86
6194;BME280;3130;41.564;23.280;2023-02-07T03:53:22;100149.63;;;-3.22;63.96
6194;BME280;3130;41.564;23.280;2023-02-07T03:55:59;100210.25;;;-2.93;64.83
6194;BME280;3130;41.564;23.280;2023-02-07T03:58:27;100119.34;;;-3.37;64.90
6194;BME280;3130;41.564;23.280;2023-02-07T04:01:02;100130.31;;;-3.29;64.88
6194;BME280;3130;41.564;23.280;2023-02-07T04:03:36;100094.72;;;-3.64;65.28
6194;BME280;3130;41.564;23.280;2023-02-07T04:06:24;99932.84;;;-4.67;65.75
6194;BME280;3130;41.564;23.280;2023-02-07T04:08:51;99872.97;;;-5.09;65.73
6194;BME280;3130;41.564;23.280;2023-02-07T04:11:31;100300.03;;;-2.74;66.16
6194;BME280;3130;41.564;23.280;2023-02-07T04:14:01;100171.94;;;-3.39;66.61
6194;BME280;3130;41.564;23.280;2023-02-07T04:16:43;100108.25;;;-4.06;66.75
6194;BME280;3130;41.564;23.280;2023-02-07T04:19:18;99895.72;;;-5.40;67.50
6194;BME280;3130;41.564;23.280;2023-02-07T04:21:47;100331.59;;;-2.88;67.84
6194;BME280;3130;41.564;23.280;2023-02-07T04:24:32;100330.66;;;-2.94;68.17
6194;BME280;3130;41.564;23.280;2023-02-07T04:27:03;100108.75;;;-4.23;68.20
6194;BME280;3130;41.564;23.280;2023-02-07T04:29:30;100187.25;;;-3.74;67.96
6194;BME280;3130;41.564;23.280;2023-02-07T04:31:58;100220.06;;;-3.59;68.08
6194;BME280;3130;41.564;23.280;2023-02-07T04:34:28;100195.59;;;-3.74;68.58
6194;BME280;3130;41.564;23.280;2023-02-07T04:36:57;100317.94;;;-3.04;68.12
6194;BME280;3130;41.564;23.280;2023-02-07T04:39:24;100338.25;;;-2.88;68.26
6194;BME280;3130;41.564;23.280;2023-02-07T04:41:51;100356.75;;;-2.83;68.57
6194;BME280;3130;41.564;23.280;2023-02-07T04:44:19;100203.53;;;-3.98;68.11
6194;BME280;3130;41.564;23.280;2023-02-07T04:46:46;100284.56;;;-3.49;68.49
6194;BME280;3130;41.564;23.280;2023-02-07T04:49:13;100182.22;;;-4.23;69.35
6194;BME280;3130;41.564;23.280;2023-02-07T04:51:40;100183.16;;;-4.16;69.57
6194;BME280;3130;41.564;23.280;2023-02-07T04:54:10;100351.13;;;-3.19;69.49
6194;BME280;3130;41.564;23.280;2023-02-07T04:56:37;100263.97;;;-3.81;70.19
6194;BME280;3130;41.564;23.280;2023-02-07T04:59:06;100397.94;;;-3.19;70.64
6194;BME280;3130;41.564;23.280;2023-02-07T05:01:34;100236.59;;;-4.14;71.13
6194;BME280;3130;41.564;23.280;2023-02-07T05:04:01;100366.50;;;-3.45;71.00
6194;BME280;3130;41.564;23.280;2023-02-07T05:06:33;100400.19;;;-3.33;71.36
6194;BME280;3130;41.564;23.280;2023-02-07T05:09:03;100284.09;;;-4.17;71.63
6194;BME280;3130;41.564;23.280;2023-02-07T05:11:32;100232.06;;;-4.33;71.40
6194;BME280;3130;41.564;23.280;2023-02-07T05:13:59;100163.19;;;-4.96;71.58
6194;BME280;3130;41.564;23.280;2023-02-07T05:16:28;100410.16;;;-3.36;71.41
6194;BME280;3130;41.564;23.280;2023-02-07T05:18:56;100394.50;;;-3.24;71.15
6194;BME280;3130;41.564;23.280;2023-02-07T05:21:23;99991.16;;;-5.56;70.72
6194;BME280;3130;41.564;23.280;2023-02-07T05:23:51;100368.97;;;-3.48;71.00
6194;BME280;3130;41.564;23.280;2023-02-07T05:26:18;100260.78;;;-4.16;71.06
6194;BME280;3130;41.564;23.280;2023-02-07T05:28:46;100219.19;;;-4.51;71.59
6194;BME280;3130;41.564;23.280;2023-02-07T05:31:14;100345.38;;;-4.00;71.77
6194;BME280;3130;41.564;23.280;2023-02-07T05:33:41;100274.56;;;-4.35;71.76
6194;BME280;3130;41.564;23.280;2023-02-07T05:36:08;100236.41;;;-4.63;72.10
6194;BME280;3130;41.564;23.280;2023-02-07T05:38:35;100206.66;;;-4.90;72.05
6194;BME280;3130;41.564;23.280;2023-02-07T05:41:02;100368.88;;;-3.94;71.89
6194;BME280;3130;41.564;23.280;2023-02-07T05:43:29;100408.69;;;-3.66;71.96
6194;BME280;3130;41.564;23.280;2023-02-07T05:45:58;100332.72;;;-4.06;72.27
6194;BME280;3130;41.564;23.280;2023-02-07T05:48:25;100408.09;;;-3.56;72.25
6194;BME280;3130;41.564;23.280;2023-02-07T05:50:52;100386.94;;;-3.69;72.00
6194;BME280;3130;41.564;23.280;2023-02-07T05:53:20;100412.31;;;-3.54;71.83
6194;BME280;3130;41.564;23.280;2023-02-07T05:55:50;100417.97;;;-3.62;72.34
6194;BME280;3130;41.564;23.280;2023-02-07T05:58:17;100407.66;;;-3.76;72.31
6194;BME280;3130;41.564;23.280;2023-02-07T06:00:44;100363.56;;;-4.09;72.59
6194;BME280;3130;41.564;23.280;2023-02-07T06:03:14;100422.75;;;-3.74;72.17
6194;BME280;3130;41.564;23.280;2023-02-07T06:05:41;100419.28;;;-3.81;72.63
6194;BME280;3130;41.564;23.280;2023-02-07T06:08:09;100421.88;;;-3.76;72.49
6194;BME280;3130;41.564;23.280;2023-02-07T06:10:36;100421.88;;;-3.76;72.04
6194;BME280;3130;41.564;23.280;2023-02-07T06:13:03;100423.50;;;-3.78;71.84
6194;BME280;3130;41.564;23.280;2023-02-07T06:15:30;100427.78;;;-3.73;71.92
6194;BME280;3130;41.564;23.280;2023-02-07T06:17:57;100431.44;;;-3.57;71.31
6194;BME280;3130;41.564;23.280;2023-02-07T06:20:26;100433.88;;;-3.62;70.89
6194;BME280;3130;41.564;23.280;2023-02-07T06:22:54;100433.06;;;-3.61;70.47
6194;BME280;3130;41.564;23.280;2023-02-07T06:25:21;100260.75;;;-4.56;70.02
6194;BME280;3130;41.564;23.280;2023-02-07T06:27:48;100442.44;;;-3.51;69.78
6194;BME280;3130;41.564;23.280;2023-02-07T06:30:15;100153.22;;;-5.33;69.90
6194;BME280;3130;41.564;23.280;2023-02-07T06:32:43;100453.41;;;-3.46;69.99
6194;BME280;3130;41.564;23.280;2023-02-07T06:35:10;100457.91;;;-3.30;69.49
6194;BME280;3130;41.564;23.280;2023-02-07T06:37:39;100143.34;;;-5.28;69.40
6194;BME280;3130;41.564;23.280;2023-02-07T06:40:07;100335.09;;;-4.12;69.26
6194;BME280;3130;41.564;23.280;2023-02-07T06:42:34;100283.88;;;-4.28;69.29
6194;BME280;3130;41.564;23.280;2023-02-07T06:45:02;100318.13;;;-3.87;68.89
6194;BME280;3130;41.564;23.280;2023-02-07T06:47:29;100451.69;;;-3.05;68.13
6194;BME280;3130;41.564;23.280;2023-02-07T06:49:56;100435.34;;;-3.30;68.37
6194;BME280;3130;41.564;23.280;2023-02-07T06:52:24;100258.78;;;-4.31;68.57
6194;BME280;3130;41.564;23.280;2023-02-07T06:54:52;100012.22;;;-5.85;68.29
6194;BME280;3130;41.564;23.280;2023-02-07T06:57:19;100467.84;;;-3.34;68.94
6194;BME280;3130;41.564;23.280;2023-02-07T06:59:47;100081.06;;;-5.56;68.83
6194;BME280;3130;41.564;23.280;2023-02-07T07:02:14;100229.84;;;-4.60;68.36
6194;BME280;3130;41.564;23.280;2023-02-07T07:04:41;100404.13;;;-3.45;68.44
6194;BME280;3130;41.564;23.280;2023-02-07T07:07:09;100389.78;;;-3.52;68.04
6194;BME280;3130;41.564;23.280;2023-02-07T07:09:36;100457.38;;;-3.14;67.94
6194;BME280;3130;41.564;23.280;2023-02-07T07:12:05;100438.81;;;-3.22;67.97
6194;BME280;3130;41.564;23.280;2023-02-07T07:14:32;100430.53;;;-3.19;67.80
6194;BME280;3130;41.564;23.280;2023-02-07T07:17:00;100462.69;;;-2.98;67.66
6194;BME280;3130;41.564;23.280;2023-02-07T07:19:27;100333.50;;;-3.69;67.94
6194;BME280;3130;41.564;23.280;2023-02-07T07:21:54;100363.59;;;-3.66;67.58
6194;BME280;3130;41.564;23.280;2023-02-07T07:24:23;100423.63;;;-3.29;67.46
6194;BME280;3130;41.564;23.280;2023-02-07T07:26:52;100419.34;;;-2.92;66.64
6194;BME280;3130;41.564;23.280;2023-02-07T07:29:21;100454.56;;;-2.36;66.28
6194;BME280;3130;41.564;23.280;2023-02-07T07:31:48;100481.94;;;-1.99;65.35
6194;BME280;3130;41.564;23.280;2023-02-07T07:34:16;100463.41;;;-1.46;64.23
6194;BME280;3130;41.564;23.280;2023-02-07T07:36:43;100303.84;;;-1.74;61.16
6194;BME280;3130;41.564;23.280;2023-02-07T07:39:10;100459.69;;;-0.15;58.50
6194;BME280;3130;41.564;23.280;2023-02-07T07:41:39;100468.41;;;0.33;56.44
6194;BME280;3130;41.564;23.280;2023-02-07T07:44:06;100260.31;;;-0.67;53.21
6194;BME280;3130;41.564;23.280;2023-02-07T07:46:35;100360.66;;;0.05;51.45
6194;BME280;3130;41.564;23.280;2023-02-07T07:49:02;100161.88;;;-1.09;51.18
6194;BME280;3130;41.564;23.280;2023-02-07T07:51:30;100354.75;;;-0.04;50.50
6194;BME280;3130;41.564;23.280;2023-02-07T07:53:57;100442.38;;;0.46;50.40
6194;BME280;3130;41.564;23.280;2023-02-07T07:56:25;100352.13;;;-0.16;50.86
6194;BME280;3130;41.564;23.280;2023-02-07T07:58:54;100123.84;;;-1.55;50.89
6194;BME280;3130;41.564;23.280;2023-02-07T08:01:21;100298.91;;;-0.70;51.31
6194;BME280;3130;41.564;23.280;2023-02-07T08:03:50;100201.22;;;-1.21;52.20
6194;BME280;3130;41.564;23.280;2023-02-07T08:06:18;100186.88;;;-1.30;51.59
6194;BME280;3130;41.564;23.280;2023-02-07T08:08:45;100119.44;;;-1.82;51.78
6194;BME280;3130;41.564;23.280;2023-02-07T08:11:13;100478.47;;;0.29;51.67
6194;BME280;3130;41.564;23.280;2023-02-07T08:13:40;100059.75;;;-2.11;51.77
6194;BME280;3130;41.564;23.280;2023-02-07T08:16:09;100467.56;;;0.36;50.71
6194;BME280;3130;41.564;23.280;2023-02-07T08:18:36;100459.13;;;0.28;51.36
6194;BME280;3130;41.564;23.280;2023-02-07T08:21:05;100465.94;;;0.44;50.47
6194;BME280;3130;41.564;23.280;2023-02-07T08:23:35;100467.69;;;0.60;50.73
6194;BME280;3130;41.564;23.280;2023-02-07T08:26:03;100435.69;;;0.56;50.29
6194;BME280;3130;41.564;23.280;2023-02-07T08:28:34;100418.06;;;0.57;49.80
6194;BME280;3130;41.564;23.280;2023-02-07T08:31:03;100317.00;;;0.11;49.83
6194;BME280;3130;41.564;23.280;2023-02-07T08:33:31;100269.13;;;0.27;49.86
6194;BME280;3130;41.564;23.280;2023-02-07T08:35:58;100424.09;;;1.85;49.73
6194;BME280;3130;41.564;23.280;2023-02-07T08:38:27;100455.06;;;2.73;47.46
6194;BME280;3130;41.564;23.280;2023-02-07T08:40:55;100130.19;;;1.42;44.80
6194;BME280;3130;41.564;23.280;2023-02-07T08:43:22;100366.91;;;3.29;43.82
6194;BME280;3130;41.564;23.280;2023-02-07T08:45:50;100275.06;;;3.06;42.44
6194;BME280;3130;41.564;23.280;2023-02-07T08:48:17;100436.13;;;4.33;42.52
6194;BME280;3130;41.564;23.280;2023-02-07T08:50:45;100327.63;;;3.73;41.13
6194;BME280;3130;41.564;23.280;2023-02-07T08:53:12;100284.84;;;3.43;40.86
6194;BME280;3130;41.564;23.280;2023-02-07T08:55:42;100459.78;;;4.38;40.82
6194;BME280;3130;41.564;23.280;2023-02-07T08:58:09;100175.69;;;2.73;39.77
6194;BME280;3130;41.564;23.280;2023-02-07T09:00:37;100276.00;;;2.90;39.93
6194;BME280;3130;41.564;23.280;2023-02-07T09:03:04;100413.19;;;3.58;41.17
6194;BME280;3130;41.564;23.280;2023-02-07T09:05:32;100369.13;;;3.65;42.12
6194;BME280;3130;41.564;23.280;2023-02-07T09:08:00;100107.19;;;1.90;40.21
6194;BME280;3130;41.564;23.280;2023-02-07T09:10:27;100318.00;;;3.16;40.52
6194;BME280;3130;41.564;23.280;2023-02-07T09:12:57;100354.00;;;3.57;40.27
6194;BME280;3130;41.564;23.280;2023-02-07T09:15:25;100445.09;;;3.84;39.20
6194;BME280;3130;41.564;23.280;2023-02-07T09:17:52;100067.81;;;1.53;39.47
6194;BME280;3130;41.564;23.280;2023-02-07T09:20:20;100450.41;;;3.50;39.77
6194;BME280;3130;41.564;23.280;2023-02-07T09:22:47;100298.31;;;2.39;40.46
6194;BME280;3130;41.564;23.280;2023-02-07T09:25:31;100420.31;;;3.03;40.61
6194;BME280;3130;41.564;23.280;2023-02-07T09:28:00;100426.19;;;3.08;40.44
6194;BME280;3130;41.564;23.280;2023-02-07T09:30:27;100304.16;;;2.48;40.34
6194;BME280;3130;41.564;23.280;2023-02-07T09:32:56;100421.06;;;3.22;40.17
6194;BME280;3130;41.564;23.280;2023-02-07T09:35:23;100328.78;;;2.19;40.92
6194;BME280;3130;41.564;23.280;2023-02-07T09:37:52;100092.47;;;0.89;40.42
6194;BME280;3130;41.564;23.280;2023-02-07T09:40:21;100210.94;;;1.75;40.51
6194;BME280;3130;41.564;23.280;2023-02-07T09:42:55;100420.41;;;2.89;39.87
6194;BME280;3130;41.564;23.280;2023-02-07T09:45:27;100407.72;;;2.90;40.63
6194;BME280;3130;41.564;23.280;2023-02-07T09:48:02;100416.94;;;3.06;40.70
6194;BME280;3130;41.564;23.280;2023-02-07T09:50:33;100383.16;;;2.99;39.84
6194;BME280;3130;41.564;23.280;2023-02-07T09:53:05;100402.50;;;3.14;39.90
6194;BME280;3130;41.564;23.280;2023-02-07T09:55:41;100263.72;;;2.41;38.94
6194;BME280;3130;41.564;23.280;2023-02-07T09:58:13;100255.16;;;2.55;39.46
6194;BME280;3130;41.564;23.280;2023-02-07T10:00:49;100368.59;;;3.30;38.77
6194;BME280;3130;41.564;23.280;2023-02-07T10:03:21;100174.41;;;2.21;39.11
6194;BME280;3130;41.564;23.280;2023-02-07T10:05:54;100181.94;;;2.34;38.96
6194;BME280;3130;41.564;23.280;2023-02-07T10:08:31;100375.91;;;3.66;38.80
6194;BME280;3130;41.564;23.280;2023-02-07T10:11:16;100378.69;;;3.37;38.61
6194;BME280;3130;41.564;23.280;2023-02-07T10:13:59;100132.41;;;1.99;39.78
6194;BME280;3130;41.564;23.280;2023-02-07T10:16:55;100002.94;;;1.51;38.58
6194;BME280;3130;41.564;23.280;2023-02-07T10:19:49;100216.03;;;2.92;38.78
6194;BME280;3130;41.564;23.280;2023-02-07T10:25:47;100137.50;;;2.95;37.22
6194;BME280;3130;41.564;23.280;2023-02-07T10:29:09;100176.88;;;3.24;37.53
6194;BME280;3130;41.564;23.280;2023-02-07T10:35:29;100105.56;;;2.82;37.11
6194;BME280;3130;41.564;23.280;2023-02-07T10:38:22;100175.06;;;3.35;36.79
6194;BME280;3130;41.564;23.280;2023-02-07T10:41:26;100222.84;;;3.70;36.70
6194;BME280;3130;41.564;23.280;2023-02-07T10:44:34;100245.94;;;4.16;36.31
6194;BME280;3130;41.564;23.280;2023-02-07T10:50:42;99952.88;;;2.73;35.28
6194;BME280;3130;41.564;23.280;2023-02-07T10:53:48;100161.63;;;3.95;34.57
6194;BME280;3130;41.564;23.280;2023-02-07T10:59:46;100206.34;;;4.61;34.99
6194;BME280;3130;41.564;23.280;2023-02-07T11:02:53;99924.63;;;3.04;34.53
6194;BME280;3130;41.564;23.280;2023-02-07T11:05:40;100138.97;;;4.40;34.01
6194;BME280;3130;41.564;23.280;2023-02-07T11:08:32;100144.44;;;4.66;34.61
6194;BME280;3130;41.564;23.280;2023-02-07T11:11:30;100063.81;;;4.30;34.01
6194;BME280;3130;41.564;23.280;2023-02-07T11:14:23;99903.53;;;3.02;32.79
6194;BME280;3130;41.564;23.280;2023-02-07T11:17:12;99892.50;;;3.06;33.53
6194;BME280;3130;41.564;23.280;2023-02-07T11:20:23;100252.78;;;5.65;33.52
6194;BME280;3130;41.564;23.280;2023-02-07T11:22:52;100062.25;;;4.70;32.11
6194;BME280;3130;41.564;23.280;2023-02-07T11:25:43;99942.50;;;4.02;32.26
6194;BME280;3130;41.564;23.280;2023-02-07T11:28:27;100154.88;;;5.43;31.71
6194;BME280;3130;41.564;23.280;2023-02-07T11:31:12;100233.56;;;5.95;32.09
6194;BME280;3130;41.564;23.280;2023-02-07T11:33:50;100149.34;;;5.66;32.04
6194;BME280;3130;41.564;23.280;2023-02-07T11:36:40;100222.56;;;6.33;31.63
6194;BME280;3130;41.564;23.280;2023-02-07T11:39:17;100224.34;;;6.28;30.83
6194;BME280;3130;41.564;23.280;2023-02-07T11:41:58;99863.91;;;4.40;30.59
6194;BME280;3130;41.564;23.280;2023-02-07T11:44:49;100118.22;;;5.93;30.18
6194;BME280;3130;41.564;23.280;2023-02-07T11:47:33;100214.00;;;6.72;30.13
6194;BME280;3130;41.564;23.280;2023-02-07T11:50:23;100141.56;;;6.47;28.54
6194;BME280;3130;41.564;23.280;2023-02-07T11:53:20;99882.03;;;5.02;28.57
6194;BME280;3130;41.564;23.280;2023-02-07T11:56:00;100015.34;;;6.02;27.55
6194;BME280;3130;41.564;23.280;2023-02-07T11:59:01;99979.34;;;5.81;27.55
6194;BME280;3130;41.564;23.280;2023-02-07T12:01:41;100187.00;;;6.98;27.52
6194;BME280;3130;41.564;23.280;2023-02-07T12:04:19;100057.78;;;6.35;27.07
6194;BME280;3130;41.564;23.280;2023-02-07T12:06:56;99973.22;;;5.90;26.29
6194;BME280;3130;41.564;23.280;2023-02-07T12:09:38;99960.59;;;5.85;25.86
6194;BME280;3130;41.564;23.280;2023-02-07T12:12:31;100156.47;;;6.96;26.36
6194;BME280;3130;41.564;23.280;2023-02-07T12:15:08;100066.19;;;6.39;26.17
6194;BME280;3130;41.564;23.280;2023-02-07T12:17:50;100102.78;;;6.36;25.71
6194;BME280;3130;41.564;23.280;2023-02-07T12:20:24;100096.81;;;6.37;25.80
6194;BME280;3130;41.564;23.280;2023-02-07T12:22:57;100167.75;;;7.19;25.79
6194;BME280;3130;41.564;23.280;2023-02-07T12:25:33;99951.28;;;6.17;25.67
6194;BME280;3130;41.564;23.280;2023-02-07T12:28:16;99788.88;;;5.34;24.84
6194;BME280;3130;41.564;23.280;2023-02-07T12:31:15;100030.53;;;7.01;25.00
6194;BME280;3130;41.564;23.280;2023-02-07T12:33:55;100031.66;;;6.61;24.71
6194;BME280;3130;41.564;23.280;2023-02-07T12:36:38;99832.31;;;5.59;24.45
6194;BME280;3130;41.564;23.280;2023-02-07T12:39:19;99939.38;;;6.18;24.50
6194;BME280;3130;41.564;23.280;2023-02-07T12:41:54;99821.47;;;5.19;24.31
6194;BME280;3130;41.564;23.280;2023-02-07T12:44:27;99772.34;;;4.84;25.06
6194;BME280;3130;41.564;23.280;2023-02-07T12:47:03;99852.00;;;5.17;25.27
6194;BME280;3130;41.564;23.280;2023-02-07T12:50:00;99817.63;;;5.03;25.21
6194;BME280;3130;41.564;23.280;2023-02-07T12:52:46;99790.13;;;5.18;25.51
6194;BME280;3130;41.564;23.280;2023-02-07T12:55:44;99929.53;;;6.06;24.43
6194;BME280;3130;41.564;23.280;2023-02-07T12:58:39;100096.88;;;6.34;25.37
6194;BME280;3130;41.564;23.280;2023-02-07T13:01:26;100123.94;;;6.73;25.68
6194;BME280;3130;41.564;23.280;2023-02-07T13:04:46;99894.75;;;5.37;25.85
6194;BME280;3130;41.564;23.280;2023-02-07T13:07:25;100134.88;;;6.77;25.78
6194;BME280;3130;41.564;23.280;2023-02-07T13:10:26;99942.94;;;5.44;26.11
6194;BME280;3130;41.564;23.280;2023-02-07T13:13:06;99907.84;;;5.22;25.80
6194;BME280;3130;41.564;23.280;2023-02-07T13:15:55;100066.09;;;6.08;25.89
6194;BME280;3130;41.564;23.280;2023-02-07T13:18:32;99814.31;;;4.24;26.40
6194;BME280;3130;41.564;23.280;2023-02-07T13:21:15;99804.72;;;4.38;27.15
6194;BME280;3130;41.564;23.280;2023-02-07T13:23:46;100012.06;;;5.97;27.25
6194;BME280;3130;41.564;23.280;2023-02-07T13:26:16;99786.84;;;4.80;26.53
6194;BME280;3130;41.564;23.280;2023-02-07T13:28:47;99846.69;;;5.28;25.99
6194;BME280;3130;41.564;23.280;2023-02-07T13:31:19;99808.78;;;4.83;26.25
6194;BME280;3130;41.564;23.280;2023-02-07T13:33:48;100044.22;;;5.64;26.18
6194;BME280;3130;41.564;23.280;2023-02-07T13:36:24;100148.38;;;6.47;26.55
6194;BME280;3130;41.564;23.280;2023-02-07T13:39:03;100023.06;;;5.62;26.61
6194;BME280;3130;41.564;23.280;2023-02-07T13:41:43;100043.63;;;5.53;27.50
6194;BME280;3130;41.564;23.280;2023-02-07T13:44:20;100157.63;;;6.14;27.24
6194;BME280;3130;41.564;23.280;2023-02-07T13:47:13;100162.72;;;6.14;27.50
6194;BME280;3130;41.564;23.280;2023-02-07T13:49:49;100015.81;;;5.44;27.33
6194;BME280;3130;41.564;23.280;2023-02-07T13:52:26;100160.69;;;6.28;27.71
6194;BME280;3130;41.564;23.280;2023-02-07T13:55:02;99928.69;;;4.99;27.45